createdAt,value
2018-08-25T00:00:12.653Z,8.70
2018-08-25T00:02:40.811Z,8.60
2018-08-25T00:05:08.942Z,8.70
2018-08-25T00:07:37.102Z,8.60
2018-08-25T00:10:05.358Z,8.70
2018-08-25T00:12:33.505Z,8.60
2018-08-25T00:15:01.640Z,8.80
2018-08-25T00:17:29.782Z,8.50
2018-08-25T00:19:57.911Z,8.60
2018-08-25T00:22:26.069Z,8.60
2018-08-25T00:24:54.194Z,8.60
2018-08-25T00:27:22.330Z,8.50
2018-08-25T00:29:50.446Z,8.50
2018-08-25T00:32:18.661Z,8.80
2018-08-25T00:34:46.797Z,8.80
2018-08-25T00:37:14.935Z,8.60
2018-08-25T00:39:43.099Z,8.70
2018-08-25T00:42:11.241Z,8.70
2018-08-25T00:44:39.366Z,8.60
2018-08-25T00:47:07.505Z,8.80
2018-08-25T00:49:35.642Z,8.80
2018-08-25T00:52:03.769Z,8.80
2018-08-25T00:54:31.893Z,8.80
2018-08-25T00:57:00.066Z,8.70
2018-08-25T00:59:28.191Z,8.80
2018-08-25T01:01:56.333Z,8.90
2018-08-25T01:04:24.486Z,8.80
2018-08-25T01:06:52.643Z,8.70
2018-08-25T01:09:20.757Z,8.70
2018-08-25T01:11:48.886Z,8.90
2018-08-25T01:14:16.981Z,9.00
2018-08-25T01:16:45.085Z,8.70
2018-08-25T01:19:13.181Z,8.80
2018-08-25T01:21:41.296Z,8.80
2018-08-25T01:24:09.414Z,8.80
2018-08-25T01:26:37.550Z,8.70
2018-08-25T01:29:05.676Z,8.70
2018-08-25T01:31:33.795Z,8.60
2018-08-25T01:34:01.949Z,8.70
2018-08-25T01:36:30.095Z,8.70
2018-08-25T01:38:58.181Z,8.60
2018-08-25T01:41:26.285Z,8.70
2018-08-25T01:43:54.401Z,8.70
2018-08-25T01:46:22.519Z,8.80
2018-08-25T01:48:50.629Z,8.70
2018-08-25T01:51:18.732Z,8.80
2018-08-25T01:53:46.865Z,8.70
2018-08-25T01:56:14.964Z,8.60
2018-08-25T01:58:43.090Z,8.70
2018-08-25T02:01:11.197Z,8.60
2018-08-25T02:03:39.352Z,8.70
2018-08-25T02:06:07.456Z,8.70
2018-08-25T02:08:35.569Z,8.80
2018-08-25T02:11:03.672Z,8.70
2018-08-25T02:13:31.780Z,8.70
2018-08-25T02:15:59.892Z,8.70
2018-08-25T02:18:28.009Z,8.60
2018-08-25T02:20:56.138Z,8.70
2018-08-25T02:23:24.248Z,8.80
2018-08-25T02:25:52.357Z,8.70
2018-08-25T02:28:20.557Z,8.70
2018-08-25T02:30:48.602Z,8.80
2018-08-25T02:33:16.738Z,8.70
2018-08-25T02:35:44.848Z,8.90
2018-08-25T02:38:12.954Z,9.00
2018-08-25T02:40:41.058Z,9.00
2018-08-25T02:43:09.164Z,9.10
2018-08-25T02:45:37.282Z,9.00
2018-08-25T02:48:05.399Z,9.00
2018-08-25T02:50:33.512Z,9.20
2018-08-25T02:53:01.654Z,9.20
2018-08-25T02:55:29.758Z,9.60
2018-08-25T02:57:57.867Z,9.70
2018-08-25T03:00:26.019Z,9.80
2018-08-25T03:02:54.138Z,10.10
2018-08-25T03:05:22.266Z,10.10
2018-08-25T03:07:50.397Z,10.20
2018-08-25T03:10:18.517Z,10.30
2018-08-25T03:12:46.649Z,10.30
2018-08-25T03:15:14.780Z,10.40
2018-08-25T03:17:42.908Z,10.60
2018-08-25T03:20:11.033Z,10.60
2018-08-25T03:22:39.158Z,10.60
2018-08-25T03:25:07.325Z,10.90
2018-08-25T03:27:35.440Z,10.70
2018-08-25T03:30:03.603Z,10.90
2018-08-25T03:32:31.722Z,10.90
2018-08-25T03:34:59.853Z,10.90
2018-08-25T03:37:27.970Z,11.10
2018-08-25T03:39:56.103Z,10.90
2018-08-25T03:42:24.222Z,10.90
2018-08-25T03:44:52.354Z,10.90
2018-08-25T03:47:20.481Z,10.80
2018-08-25T03:49:48.603Z,11.00
2018-08-25T03:52:16.721Z,10.90
2018-08-25T03:54:44.843Z,10.80
2018-08-25T03:57:12.981Z,11.00
2018-08-25T03:59:41.117Z,11.20
2018-08-25T04:02:09.242Z,11.10
2018-08-25T04:04:37.369Z,11.10
2018-08-25T04:07:05.490Z,11.10
2018-08-25T04:09:33.614Z,11.10
2018-08-25T04:12:01.719Z,11.10
2018-08-25T04:14:29.858Z,11.10
2018-08-25T04:16:57.974Z,11.10
2018-08-25T04:19:26.097Z,11.00
2018-08-25T04:21:54.217Z,11.00
2018-08-25T04:24:22.322Z,11.00
2018-08-25T04:26:50.420Z,10.90
2018-08-25T04:29:18.524Z,10.90
2018-08-25T04:31:46.641Z,10.80
2018-08-25T04:34:14.762Z,10.90
2018-08-25T04:36:42.861Z,10.80
2018-08-25T04:39:12.000Z,10.90
2018-08-25T04:41:40.113Z,10.70
2018-08-25T04:44:08.561Z,10.70
2018-08-25T04:46:36.674Z,10.70
2018-08-25T04:49:05.063Z,10.60
2018-08-25T04:51:33.174Z,10.80
2018-08-25T04:54:01.281Z,10.70
2018-08-25T04:56:29.389Z,10.90
2018-08-25T04:58:57.530Z,10.80
2018-08-25T05:01:25.657Z,10.80
2018-08-25T05:03:53.775Z,10.80
2018-08-25T05:06:21.893Z,10.80
2018-08-25T05:08:49.997Z,10.80
2018-08-25T05:11:18.113Z,10.70
2018-08-25T05:13:46.221Z,10.80
2018-08-25T05:16:14.352Z,10.90
2018-08-25T05:18:42.458Z,10.80
2018-08-25T05:21:10.577Z,10.80
2018-08-25T05:23:38.683Z,10.80
2018-08-25T05:26:06.793Z,10.80
2018-08-25T05:28:34.905Z,10.90
2018-08-25T05:31:03.029Z,11.00
2018-08-25T05:33:31.154Z,10.80
2018-08-25T05:35:59.276Z,10.90
2018-08-25T05:38:27.384Z,10.80
2018-08-25T05:40:56.350Z,10.80
2018-08-25T05:43:24.462Z,10.90
2018-08-25T05:45:52.581Z,10.80
2018-08-25T05:48:20.784Z,10.90
2018-08-25T05:50:48.895Z,10.80
2018-08-25T05:53:17.033Z,10.90
2018-08-25T05:55:45.169Z,10.90
2018-08-25T05:58:13.313Z,11.20
2018-08-25T06:00:41.430Z,11.00
2018-08-25T06:03:09.541Z,11.00
2018-08-25T06:05:37.666Z,11.10
2018-08-25T06:08:05.789Z,11.10
2018-08-25T06:10:33.913Z,11.10
2018-08-25T06:13:02.018Z,11.20
2018-08-25T06:15:30.142Z,11.30
2018-08-25T06:17:58.242Z,11.40
2018-08-25T06:20:26.358Z,11.80
2018-08-25T06:22:54.549Z,11.80
2018-08-25T06:25:22.726Z,12.00
2018-08-25T06:27:50.885Z,12.10
2018-08-25T06:30:19.192Z,12.20
2018-08-25T06:32:47.337Z,12.40
2018-08-25T06:35:15.453Z,12.50
2018-08-25T06:37:43.593Z,12.50
2018-08-25T06:40:11.731Z,12.70
2018-08-25T06:42:39.941Z,12.70
2018-08-25T06:45:08.015Z,12.70
2018-08-25T06:47:37.216Z,12.90
2018-08-25T06:50:05.492Z,13.00
2018-08-25T06:52:33.662Z,12.90
2018-08-25T06:55:01.775Z,13.00
2018-08-25T06:57:29.890Z,13.00
2018-08-25T06:59:58.002Z,12.90
2018-08-25T07:02:26.160Z,12.90
2018-08-25T07:04:54.342Z,12.60
2018-08-25T07:07:22.504Z,12.60
2018-08-25T07:09:50.678Z,12.40
2018-08-25T07:12:18.817Z,12.30
2018-08-25T07:21:51.990Z,12.40
2018-08-25T07:24:20.155Z,12.40
2018-08-25T07:26:48.361Z,12.40
2018-08-25T07:29:16.513Z,12.20
2018-08-25T07:31:44.693Z,12.20
2018-08-25T07:34:12.859Z,12.10
2018-08-25T07:36:41.012Z,12.00
2018-08-25T07:39:10.933Z,12.00
2018-08-25T07:41:39.069Z,12.00
2018-08-25T07:44:07.193Z,12.00
2018-08-25T07:46:35.325Z,12.00
2018-08-25T07:49:03.453Z,11.90
2018-08-25T07:51:31.581Z,11.90
2018-08-25T07:53:59.706Z,11.90
2018-08-25T07:56:27.833Z,12.00
2018-08-25T07:58:55.969Z,12.00
2018-08-25T08:01:24.201Z,12.00
2018-08-25T08:03:52.334Z,12.00
2018-08-25T08:06:20.481Z,12.00
2018-08-25T08:08:48.584Z,12.00
2018-08-25T08:11:16.703Z,12.00
2018-08-25T08:13:44.825Z,12.00
2018-08-25T08:16:12.941Z,12.10
2018-08-25T08:18:41.055Z,12.10
2018-08-25T08:21:09.169Z,12.10
2018-08-25T08:23:37.293Z,12.20
2018-08-25T08:26:05.401Z,12.30
2018-08-25T08:28:33.542Z,12.40
2018-08-25T08:31:01.650Z,12.50
2018-08-25T08:33:29.786Z,12.60
2018-08-25T08:35:57.893Z,12.60
2018-08-25T08:38:26.029Z,12.70
2018-08-25T08:40:54.174Z,12.70
2018-08-25T08:43:22.289Z,12.60
2018-08-25T08:45:50.410Z,12.60
2018-08-25T08:48:18.526Z,12.60
2018-08-25T08:50:46.638Z,12.60
2018-08-25T08:53:14.764Z,12.50
2018-08-25T08:55:42.942Z,12.50
2018-08-25T08:58:11.123Z,12.70
2018-08-25T09:00:39.166Z,12.70
2018-08-25T09:03:07.276Z,12.70
2018-08-25T09:05:35.413Z,12.70
2018-08-25T09:08:03.533Z,12.60
2018-08-25T09:10:31.629Z,12.50
2018-08-25T09:13:00.022Z,12.40
2018-08-25T09:15:28.132Z,12.10
2018-08-25T09:17:56.294Z,12.00
2018-08-25T09:20:24.388Z,12.00
2018-08-25T09:22:52.505Z,11.90
2018-08-25T09:25:20.610Z,11.80
2018-08-25T09:27:48.725Z,11.80
2018-08-25T09:30:16.825Z,11.70
2018-08-25T09:32:44.945Z,11.60
2018-08-25T09:35:13.058Z,11.40
2018-08-25T09:37:41.182Z,11.20
2018-08-25T09:40:09.285Z,11.20
2018-08-25T09:42:37.403Z,11.00
2018-08-25T09:45:05.542Z,11.00
2018-08-25T09:47:34.628Z,10.90
2018-08-25T09:50:02.831Z,11.00
2018-08-25T09:52:30.935Z,10.80
2018-08-25T09:54:59.053Z,10.80
2018-08-25T09:57:27.166Z,10.80
2018-08-25T09:59:55.286Z,10.90
2018-08-25T10:02:23.393Z,10.90
2018-08-25T10:04:51.532Z,10.90
2018-08-25T10:07:19.672Z,11.10
2018-08-25T10:09:47.802Z,11.40
2018-08-25T10:12:15.921Z,11.50
2018-08-25T10:14:44.070Z,11.50
2018-08-25T10:17:12.203Z,11.50
2018-08-25T10:19:40.347Z,11.70
2018-08-25T10:22:08.464Z,12.00
2018-08-25T10:24:36.599Z,12.40
2018-08-25T10:27:04.729Z,12.60
2018-08-25T10:29:32.853Z,12.90
2018-08-25T10:32:01.012Z,13.10
2018-08-25T10:34:29.174Z,13.40
2018-08-25T10:36:57.301Z,13.50
2018-08-25T10:39:25.439Z,13.30
2018-08-25T10:41:53.748Z,13.10
2018-08-25T10:44:21.713Z,13.10
2018-08-25T10:46:49.834Z,13.10
2018-08-25T10:49:17.962Z,13.10
2018-08-25T10:51:46.097Z,13.40
2018-08-25T10:54:14.233Z,13.90
2018-08-25T10:56:42.354Z,14.00
2018-08-25T10:59:10.480Z,13.80
2018-08-25T11:01:38.593Z,13.30
2018-08-25T11:04:06.726Z,13.10
2018-08-25T11:06:34.837Z,12.90
2018-08-25T11:09:03.209Z,13.10
2018-08-25T11:11:31.327Z,13.20
2018-08-25T11:13:59.454Z,13.20
2018-08-25T11:16:27.625Z,13.20
2018-08-25T11:18:55.693Z,13.00
2018-08-25T11:21:23.784Z,13.00
2018-08-25T11:23:51.985Z,13.10
2018-08-25T11:26:19.996Z,13.10
2018-08-25T11:28:48.112Z,13.20
2018-08-25T11:31:16.226Z,13.10
2018-08-25T11:33:44.970Z,13.00
2018-08-25T11:36:13.072Z,13.00
2018-08-25T11:38:41.186Z,13.20
2018-08-25T11:41:09.310Z,13.20
2018-08-25T11:43:37.437Z,12.70
2018-08-25T11:46:05.578Z,12.40
2018-08-25T11:48:33.834Z,12.30
2018-08-25T11:51:01.940Z,12.40
2018-08-25T11:53:30.047Z,12.40
2018-08-25T11:55:58.162Z,12.30
2018-08-25T11:58:26.274Z,12.20
2018-08-25T12:00:54.390Z,12.20
2018-08-25T12:03:22.502Z,12.20
2018-08-25T12:05:50.619Z,12.00
2018-08-25T12:08:18.717Z,11.90
2018-08-25T12:10:46.894Z,11.80
2018-08-25T12:13:14.962Z,12.10
2018-08-25T12:15:43.084Z,12.20
2018-08-25T12:18:11.218Z,12.10
2018-08-25T12:20:39.330Z,12.10
2018-08-25T12:23:07.445Z,12.70
2018-08-25T12:25:35.574Z,13.10
2018-08-25T12:28:03.685Z,13.40
2018-08-25T12:30:31.847Z,13.60
2018-08-25T12:32:59.938Z,14.00
2018-08-25T12:35:28.107Z,14.10
2018-08-25T12:37:56.219Z,14.50
2018-08-25T12:40:24.334Z,14.80
2018-08-25T12:42:52.428Z,14.60
2018-08-25T12:45:20.547Z,14.20
2018-08-25T12:47:48.657Z,13.90
2018-08-25T12:50:16.788Z,13.30
2018-08-25T12:52:44.918Z,13.20
2018-08-25T12:55:13.107Z,12.80
2018-08-25T12:57:41.226Z,12.60
2018-08-25T13:00:09.405Z,12.10
2018-08-25T13:02:37.587Z,11.80
2018-08-25T13:05:05.764Z,11.70
2018-08-25T13:07:33.951Z,11.70
2018-08-25T13:10:02.025Z,11.90
2018-08-25T13:12:30.166Z,12.20
2018-08-25T13:14:58.362Z,12.30
2018-08-25T13:17:26.485Z,12.50
2018-08-25T13:19:54.659Z,12.70
2018-08-25T13:22:22.754Z,12.90
2018-08-25T13:24:50.904Z,13.00
2018-08-25T13:27:19.017Z,13.10
2018-08-25T13:29:47.145Z,13.30
2018-08-25T13:32:15.282Z,13.30
2018-08-25T13:34:43.396Z,13.40
2018-08-25T13:37:11.542Z,13.50
2018-08-25T13:39:39.661Z,13.40
2018-08-25T13:42:07.797Z,13.60
2018-08-25T13:44:35.922Z,13.80
2018-08-25T13:47:04.053Z,14.20
2018-08-25T13:49:32.228Z,14.50
2018-08-25T13:52:01.054Z,14.50
2018-08-25T13:54:29.673Z,14.30
2018-08-25T13:56:57.901Z,14.20
2018-08-25T13:59:26.033Z,14.10
2018-08-25T14:01:54.169Z,14.00
2018-08-25T14:04:22.350Z,14.00
2018-08-25T14:06:50.478Z,13.90
2018-08-25T14:09:18.602Z,13.60
2018-08-25T14:11:46.716Z,13.60
2018-08-25T14:14:14.834Z,13.70
2018-08-25T14:16:42.949Z,13.70
2018-08-25T14:19:11.061Z,13.80
2018-08-25T14:21:39.508Z,13.90
2018-08-25T14:24:07.653Z,14.00
2018-08-25T14:26:35.769Z,14.40
2018-08-25T14:29:03.882Z,14.70
2018-08-25T14:31:31.996Z,14.80
2018-08-25T14:34:00.113Z,14.90
2018-08-25T14:36:28.242Z,14.80
2018-08-25T14:38:56.362Z,14.50
2018-08-25T14:41:24.485Z,14.30
2018-08-25T14:43:52.602Z,14.10
2018-08-25T14:46:20.721Z,13.90
2018-08-25T14:48:48.881Z,13.80
2018-08-25T14:51:17.045Z,13.70
2018-08-25T14:53:45.162Z,13.90
2018-08-25T14:56:13.285Z,14.10
2018-08-25T14:58:41.388Z,14.10
2018-08-25T15:01:09.511Z,14.20
2018-08-25T15:03:37.621Z,14.40
2018-08-25T15:06:05.742Z,14.40
2018-08-25T15:08:33.858Z,14.20
2018-08-25T15:11:01.970Z,14.00
2018-08-25T15:13:30.097Z,13.70
2018-08-25T15:15:58.202Z,13.50
2018-08-25T15:18:26.326Z,13.30
2018-08-25T15:20:54.437Z,13.30
2018-08-25T15:23:22.643Z,13.40
2018-08-25T15:25:50.762Z,13.50
2018-08-25T15:28:18.908Z,13.70
2018-08-25T15:30:47.006Z,13.60
2018-08-25T15:33:15.138Z,13.60
2018-08-25T15:35:43.245Z,13.70
2018-08-25T15:38:11.365Z,13.70
2018-08-25T15:40:39.502Z,13.90
2018-08-25T15:43:07.617Z,13.90
2018-08-25T15:45:35.717Z,13.90
2018-08-25T15:48:03.825Z,13.80
2018-08-25T15:50:31.926Z,13.80
2018-08-25T15:53:00.045Z,13.90
2018-08-25T15:55:28.258Z,14.20
2018-08-25T15:57:56.705Z,14.30
2018-08-25T16:00:24.662Z,14.30
2018-08-25T16:02:52.772Z,14.20
2018-08-25T16:05:20.933Z,14.00
2018-08-25T16:07:49.101Z,13.80
2018-08-25T16:10:17.217Z,13.70
2018-08-25T16:12:45.350Z,13.70
2018-08-25T16:15:13.493Z,13.70
2018-08-25T16:17:41.721Z,13.80
2018-08-25T16:20:09.920Z,14.00
2018-08-25T16:22:37.982Z,13.90
2018-08-25T16:25:06.322Z,13.80
2018-08-25T16:27:34.494Z,13.70
2018-08-25T16:30:02.605Z,13.50
2018-08-25T16:32:30.722Z,13.40
2018-08-25T16:34:58.842Z,13.40
2018-08-25T16:37:26.986Z,13.30
2018-08-25T16:39:55.138Z,13.20
2018-08-25T16:42:23.278Z,13.20
2018-08-25T16:44:51.650Z,13.20
2018-08-25T16:47:19.805Z,13.20
2018-08-25T16:49:47.978Z,13.20
2018-08-25T16:52:16.114Z,13.20
2018-08-25T16:54:44.233Z,13.20
2018-08-25T16:57:12.361Z,13.20
2018-08-25T16:59:40.589Z,13.10
2018-08-25T17:02:08.847Z,12.80
2018-08-25T17:04:36.985Z,12.40
2018-08-25T17:07:05.193Z,12.10
2018-08-25T17:09:33.318Z,11.70
2018-08-25T17:12:01.462Z,11.50
2018-08-25T17:14:29.581Z,11.20
2018-08-25T17:16:57.693Z,11.00
2018-08-25T17:19:25.855Z,10.80
2018-08-25T17:21:53.960Z,10.70
2018-08-25T17:24:22.073Z,10.80
2018-08-25T17:26:50.248Z,10.60
2018-08-25T17:29:18.325Z,10.50
2018-08-25T17:31:46.490Z,10.90
2018-08-25T17:34:14.651Z,10.50
2018-08-25T17:36:42.994Z,10.70
2018-08-25T17:39:11.901Z,10.80
2018-08-25T17:41:40.261Z,10.90
2018-08-25T17:44:08.763Z,10.90
2018-08-25T17:46:36.921Z,10.90
2018-08-25T17:49:05.615Z,10.80
2018-08-25T17:51:33.746Z,10.70
2018-08-25T17:54:01.897Z,10.40
2018-08-25T17:56:30.046Z,10.60
2018-08-25T17:58:58.174Z,10.40
2018-08-25T18:01:26.277Z,10.50
2018-08-25T18:03:54.411Z,10.10
2018-08-25T18:06:22.533Z,10.20
2018-08-25T18:08:50.653Z,9.90
2018-08-25T18:11:18.781Z,9.90
2018-08-25T18:13:46.905Z,10.10
2018-08-25T18:16:15.074Z,10.00
2018-08-25T18:18:43.195Z,9.70
2018-08-25T18:21:11.333Z,9.70
2018-08-25T18:23:39.542Z,9.70
2018-08-25T18:26:07.901Z,9.80
2018-08-25T18:28:36.033Z,9.70
2018-08-25T18:31:04.209Z,9.50
2018-08-25T18:33:32.367Z,9.40
2018-08-25T18:36:00.493Z,9.10
2018-08-25T18:38:28.625Z,9.40
2018-08-25T18:40:56.750Z,9.00
2018-08-25T18:43:24.869Z,9.30
2018-08-25T18:45:52.998Z,9.20
2018-08-25T18:48:21.234Z,8.90
2018-08-25T18:50:49.250Z,8.90
2018-08-25T18:53:17.369Z,8.80
2018-08-25T18:55:45.998Z,8.70
2018-08-25T18:58:14.246Z,8.80
2018-08-25T19:00:42.458Z,8.60
2018-08-25T19:03:11.630Z,8.70
2018-08-25T19:05:39.818Z,8.70
2018-08-25T19:08:07.976Z,8.70
2018-08-25T19:10:36.154Z,8.90
2018-08-25T19:13:04.356Z,8.60
2018-08-25T19:15:32.507Z,8.60
2018-08-25T19:18:00.674Z,8.60
2018-08-25T19:20:28.894Z,8.50
2018-08-25T19:22:57.034Z,8.70
2018-08-25T19:25:25.199Z,8.30
2018-08-25T19:27:53.313Z,8.30
2018-08-25T19:30:21.559Z,8.30
2018-08-25T19:32:49.730Z,8.40
2018-08-25T19:35:18.057Z,8.30
2018-08-25T19:37:46.260Z,8.30
2018-08-25T19:40:14.443Z,8.20
2018-08-25T19:42:42.617Z,8.20
2018-08-25T19:45:10.789Z,8.20
2018-08-25T19:47:38.941Z,8.10
2018-08-25T19:50:07.073Z,8.30
2018-08-25T19:52:35.191Z,8.30
2018-08-25T19:55:03.316Z,8.50
2018-08-25T19:57:31.451Z,8.50
2018-08-25T19:59:59.748Z,8.60
2018-08-25T20:02:27.865Z,8.60
2018-08-25T20:04:55.991Z,8.70
2018-08-25T20:07:24.103Z,8.90
2018-08-25T20:09:52.235Z,9.00
2018-08-25T20:12:20.337Z,9.10
2018-08-25T20:14:48.444Z,9.20
2018-08-25T20:17:16.604Z,9.70
2018-08-25T20:19:44.682Z,9.30
2018-08-25T20:22:12.818Z,9.40
2018-08-25T20:24:41.030Z,9.40
2018-08-25T20:27:09.182Z,9.60
2018-08-25T20:29:37.290Z,9.40
2018-08-25T20:32:05.482Z,9.40
2018-08-25T20:34:33.591Z,9.70
2018-08-25T20:37:01.970Z,9.60
2018-08-25T20:39:30.073Z,9.60
2018-08-25T20:41:58.214Z,9.40
2018-08-25T20:44:26.317Z,9.50
2018-08-25T20:46:54.457Z,9.50
2018-08-25T20:49:22.556Z,9.40
2018-08-25T20:51:50.672Z,9.50
2018-08-25T20:54:18.821Z,9.40
2018-08-25T20:56:46.951Z,9.50
2018-08-25T20:59:15.055Z,9.50
2018-08-25T21:01:43.166Z,9.50
2018-08-25T21:04:11.320Z,9.50
2018-08-25T21:06:39.518Z,9.50
2018-08-25T21:09:08.745Z,9.70
2018-08-25T21:11:36.865Z,9.50
2018-08-25T21:14:06.013Z,9.60
2018-08-25T21:16:34.189Z,9.60
2018-08-25T21:19:02.732Z,9.70
2018-08-25T21:21:30.858Z,9.60
2018-08-25T21:23:58.986Z,9.50
2018-08-25T21:26:27.166Z,9.70
2018-08-25T21:28:55.285Z,9.40
2018-08-25T21:31:23.417Z,9.40
2018-08-25T21:33:51.537Z,9.40
2018-08-25T21:36:19.670Z,9.40
2018-08-25T21:38:47.792Z,9.40
2018-08-25T21:41:15.929Z,9.30
2018-08-25T21:43:44.538Z,9.30
2018-08-25T21:46:12.709Z,9.40
2018-08-25T21:48:40.833Z,9.70
2018-08-25T21:51:09.012Z,9.40
2018-08-25T21:53:37.093Z,9.50
2018-08-25T21:56:05.216Z,9.40
2018-08-25T21:58:33.343Z,9.40
2018-08-25T22:01:01.493Z,9.30
2018-08-25T22:03:29.607Z,9.30
2018-08-25T22:05:57.766Z,9.30
2018-08-25T22:08:25.999Z,9.20
2018-08-25T22:10:54.497Z,9.20
2018-08-25T22:13:22.790Z,9.00
2018-08-25T22:15:51.014Z,8.80
2018-08-25T22:18:19.646Z,8.60
2018-08-25T22:20:47.769Z,8.50
2018-08-25T22:23:15.905Z,8.30
2018-08-25T22:25:44.021Z,8.30
2018-08-25T22:28:12.150Z,8.30
2018-08-25T22:30:40.274Z,8.00
2018-08-25T22:33:08.404Z,8.00
2018-08-25T22:35:36.530Z,8.00
2018-08-25T22:38:04.709Z,7.90
2018-08-25T22:40:32.829Z,7.80
2018-08-25T22:43:01.615Z,7.90
2018-08-25T22:45:29.760Z,7.80
2018-08-25T22:47:57.908Z,7.80
2018-08-25T22:50:26.049Z,7.70
2018-08-25T22:52:54.187Z,7.60
2018-08-25T22:55:23.267Z,7.60
2018-08-25T22:57:51.668Z,7.50
2018-08-25T23:00:20.445Z,7.40
2018-08-25T23:02:48.599Z,7.40
2018-08-25T23:05:16.733Z,7.30
2018-08-25T23:07:44.864Z,7.30
2018-08-25T23:10:12.969Z,7.30
2018-08-25T23:12:41.102Z,7.20
2018-08-25T23:15:09.246Z,7.20
2018-08-25T23:17:37.362Z,7.20
2018-08-25T23:20:05.473Z,7.10
2018-08-25T23:22:33.589Z,7.20
2018-08-25T23:25:01.699Z,7.20
2018-08-25T23:27:29.857Z,7.20
2018-08-25T23:29:57.977Z,7.20
2018-08-25T23:32:26.114Z,7.10
2018-08-25T23:34:54.225Z,7.00
2018-08-25T23:37:22.358Z,7.20
2018-08-25T23:39:50.461Z,7.00
2018-08-25T23:42:18.606Z,6.80
2018-08-25T23:44:46.688Z,6.90
2018-08-25T23:47:14.801Z,7.00
2018-08-25T23:49:42.947Z,7.10
2018-08-25T23:52:11.205Z,7.30
2018-08-25T23:54:39.355Z,7.60
2018-08-25T23:57:07.460Z,7.70
2018-08-25T23:59:35.587Z,7.80
